Time;durP1;ratioP1;P1;durP2;ratioP2;P2;SDS_P1;SDS_P2;PMS_P1;PMS_P2;Temp;Humidity;BMP_temperature;BMP_pressure;BME280_temperature;BME280_humidity;BME280_pressure;Samples;Min_cycle;Max_cycle;Signal;HPM_P1;HPM_P2
2021/05/06 00:02:28;;;;;;;5.47;2.05;;;;;;;7.12;60.30;98985.38;5035835;28;20046;-82
2021/05/06 00:05:24;;;;;;;8.98;1.55;;;;;;;7.13;60.41;98990.53;5036246;28;20053;-82
2021/05/06 00:08:04;;;;;;;8.30;2.38;;;;;;;7.16;60.47;98984.28;5036951;28;20163;-82
2021/05/06 00:32:30;;;;;;;9.90;1.85;;;;;;;7.43;59.55;98967.94;5033320;28;20064;-82
2021/05/06 00:34:57;;;;;;;8.43;2.23;;;;;;;7.45;59.77;98963.47;5035121;28;20050;-82
2021/05/06 00:37:23;;;;;;;5.10;1.70;;;;;;;7.47;59.63;98968.63;5033946;28;20049;-82
2021/05/06 00:40:00;;;;;;;7.45;2.40;;;;;;;7.49;59.46;98964.16;5034931;28;20050;-81
2021/05/06 01:05:57;;;;;;;5.32;2.05;;;;;;;7.56;59.67;98949.78;5034284;28;20399;-82
2021/05/06 01:08:26;;;;;;;5.10;1.73;;;;;;;7.58;59.39;98958.38;5034425;28;20621;-82
2021/05/06 01:11:04;;;;;;;9.05;2.22;;;;;;;7.60;59.46;98964.38;5034464;28;20052;-82
2021/05/06 01:13:32;;;;;;;5.78;2.13;;;;;;;7.61;59.40;98971.31;5013804;28;20072;-82
2021/05/06 01:15:59;;;;;;;13.98;2.95;;;;;;;7.62;59.60;98978.22;5014815;28;20054;-82
2021/05/06 01:18:25;;;;;;;8.73;2.85;;;;;;;7.61;59.36;98987.00;5019510;28;20059;-82
2021/05/06 01:21:00;;;;;;;6.85;2.35;;;;;;;7.62;59.70;98990.50;5034346;28;20052;-82
2021/05/06 01:23:28;;;;;;;6.35;2.00;;;;;;;7.60;59.68;98977.47;5034235;28;20049;-81
2021/05/06 01:26:01;;;;;;;7.03;2.35;;;;;;;7.56;59.84;98968.94;5032621;28;20053;-82
2021/05/06 01:28:35;;;;;;;4.75;2.22;;;;;;;7.54;59.67;98968.19;5034118;28;20049;-81
2021/05/06 01:31:06;;;;;;;10.40;2.40;;;;;;;7.51;59.64;98970.97;5034670;28;20068;-82
2021/05/06 01:33:41;;;;;;;8.75;2.33;;;;;;;7.47;59.98;98969.47;5035249;28;20061;-82
2021/05/06 01:59:59;;;;;;;10.25;2.60;;;;;;;7.31;61.72;98945.94;5035050;28;20064;-81
2021/05/06 02:02:25;;;;;;;5.60;2.65;;;;;;;7.31;61.79;98940.69;5035322;28;20064;-81
2021/05/06 02:04:52;;;;;;;4.55;2.47;;;;;;;7.30;61.74;98937.22;5035268;28;20057;-81
2021/05/06 02:07:21;;;;;;;4.68;2.30;;;;;;;7.32;62.16;98944.16;5034708;28;20060;-82
2021/05/06 02:09:49;;;;;;;7.88;2.25;;;;;;;7.34;62.31;98939.69;5015387;28;20056;-82
2021/05/06 02:12:17;;;;;;;6.63;2.50;;;;;;;7.35;62.09;98942.22;5013647;28;20415;-82
2021/05/06 02:14:49;;;;;;;5.88;2.80;;;;;;;7.37;62.23;98937.72;5014140;28;20054;-81
2021/05/06 02:17:15;;;;;;;8.82;2.60;;;;;;;7.39;62.74;98938.50;5014742;28;20061;-81
2021/05/06 02:19:45;;;;;;;5.20;2.83;;;;;;;7.40;62.61;98932.31;5013937;28;20058;-81
2021/05/06 02:22:11;;;;;;;7.40;2.85;;;;;;;7.43;62.49;98937.38;5012818;28;20495;-81
2021/05/06 02:24:37;;;;;;;6.57;2.65;;;;;;;7.45;62.89;98931.22;5012269;28;20054;-81
2021/05/06 02:27:04;;;;;;;8.10;2.10;;;;;;;7.46;62.86;98932.88;5014113;28;20133;-81
2021/05/06 02:29:30;;;;;;;10.43;2.97;;;;;;;7.48;62.96;98931.03;5014016;28;20061;-81
2021/05/06 02:31:56;;;;;;;8.10;2.45;;;;;;;7.49;63.16;98924.88;5013064;28;20053;-82
2021/05/06 02:34:22;;;;;;;11.15;2.70;;;;;;;7.49;63.06;98925.72;5013950;28;20049;-81
2021/05/06 02:36:49;;;;;;;5.95;2.72;;;;;;;7.50;63.41;98921.31;5013895;28;20057;-82
2021/05/06 02:39:15;;;;;;;6.78;2.70;;;;;;;7.50;63.06;98929.16;5014768;28;20060;-82
2021/05/06 02:41:41;;;;;;;5.97;2.97;;;;;;;7.50;63.60;98926.53;5015686;28;20069;-81
2021/05/06 02:44:07;;;;;;;4.95;2.45;;;;;;;7.52;63.73;98928.13;5013515;28;20495;-81
2021/05/06 02:46:33;;;;;;;5.05;2.28;;;;;;;7.52;63.68;98933.38;5014623;28;20049;-81
2021/05/06 02:49:00;;;;;;;6.30;2.88;;;;;;;7.52;63.29;98929.94;5014137;28;20057;-81
2021/05/06 02:51:32;;;;;;;8.45;2.90;;;;;;;7.51;63.33;98926.47;5013897;28;20046;-81
2021/05/06 02:53:58;;;;;;;8.73;3.27;;;;;;;7.49;63.43;98919.63;5014653;28;20395;-81
2021/05/06 02:56:33;;;;;;;7.35;2.95;;;;;;;7.46;63.33;98922.41;5014957;28;20057;-81
2021/05/06 02:59:28;;;;;;;6.35;3.25;;;;;;;7.42;63.71;98930.47;5017826;28;20061;-81
2021/05/06 03:04:41;;;;;;;5.38;3.20;;;;;;;7.35;63.62;98918.66;5014936;28;20072;-81
2021/05/06 03:07:09;;;;;;;8.82;3.10;;;;;;;7.32;64.11;98918.81;5014968;28;20391;-81
2021/05/06 03:21:05;;;;;;;4.50;3.70;;;;;;;7.24;64.28;98926.25;5020612;28;20092;-81
2021/05/06 03:22:59;;;;;;;10.57;3.83;;;;;;;7.20;64.59;98912.50;5013955;28;20073;-82
2021/05/06 03:25:28;;;;;;;6.20;3.90;;;;;;;7.19;64.54;98918.69;5016467;28;20480;-81
2021/05/06 03:28:03;;;;;;;7.25;4.07;;;;;;;7.16;64.67;98922.31;5017999;28;20057;-81
2021/05/06 04:03:47;;;;;;;7.32;4.25;;;;;;;7.13;65.83;98893.69;5017788;28;20542;-81
2021/05/06 04:25:45;;;;;;;8.18;4.40;;;;;;;7.16;65.99;98892.69;5035490;28;20743;-81
2021/05/06 04:36:01;;;;;;;6.35;4.55;;;;;;;7.20;66.04;98882.88;5036205;28;20095;-82
2021/05/06 04:38:27;;;;;;;5.13;4.25;;;;;;;7.20;66.10;98883.72;5035503;28;20056;-81
2021/05/06 04:54:34;;;;;;;6.60;5.05;;;;;;;7.03;65.97;98875.03;5016353;28;20060;-81
2021/05/06 05:04:55;;;;;;;9.20;5.38;;;;;;;6.85;66.58;98879.56;5015379;28;20483;-82
2021/05/06 05:07:33;;;;;;;9.88;5.55;;;;;;;6.83;66.46;98884.03;5016930;28;20054;-81
2021/05/06 05:10:12;;;;;;;9.75;5.80;;;;;;;6.79;66.68;98890.34;5029273;28;20046;-81
2021/05/06 05:23:41;;;;;;;9.70;7.03;;;;;;;6.73;67.92;98881.06;5015174;28;20057;-80
2021/05/06 05:26:11;;;;;;;6.60;5.45;;;;;;;6.78;67.93;98883.44;5015028;28;20419;-81
2021/05/06 05:28:38;;;;;;;13.60;10.98;;;;;;;6.83;67.83;98891.00;5014012;28;20050;-81
2021/05/06 05:31:05;;;;;;;13.80;10.50;;;;;;;6.87;67.82;98895.16;5014663;28;20073;-80
2021/05/06 05:33:37;;;;;;;13.93;10.13;;;;;;;6.89;67.81;98896.75;5015015;28;20058;-81
2021/05/06 05:36:37;;;;;;;11.98;9.52;;;;;;;6.90;67.73;98895.84;5015196;28;20054;-81
2021/05/06 05:39:19;;;;;;;8.80;7.50;;;;;;;6.93;67.72;98907.03;5013930;28;20050;-81
2021/05/06 05:47:31;;;;;;;8.88;7.70;;;;;;;6.96;67.59;98907.75;5014435;28;20132;-80
2021/05/06 05:55:20;;;;;;;8.32;6.80;;;;;;;7.01;67.49;98912.69;5033896;28;20057;-81
2021/05/06 05:57:51;;;;;;;9.90;6.63;;;;;;;6.99;66.89;98911.97;5034182;28;20049;-81
2021/05/06 06:00:18;;;;;;;10.23;7.18;;;;;;;6.99;67.42;98917.19;5020271;28;20056;-80
2021/05/06 06:02:44;;;;;;;9.77;7.55;;;;;;;6.98;67.29;98911.09;5012776;28;20091;-81
2021/05/06 06:05:11;;;;;;;9.63;6.50;;;;;;;6.97;67.57;98911.19;5013569;28;20136;-80
2021/05/06 06:07:37;;;;;;;7.60;6.07;;;;;;;6.97;67.80;98909.41;5013568;28;20399;-80
2021/05/06 06:10:04;;;;;;;6.90;6.05;;;;;;;6.98;67.35;98915.47;5024131;28;20045;-81
2021/05/06 06:12:31;;;;;;;7.10;6.18;;;;;;;6.99;67.76;98911.97;5034646;28;20058;-81
2021/05/06 06:15:05;;;;;;;6.47;5.75;;;;;;;7.00;67.90;98909.22;5034288;28;20056;-81
2021/05/06 06:17:38;;;;;;;7.32;6.30;;;;;;;7.03;67.89;98911.69;5034766;28;20537;-81
2021/05/06 06:20:06;;;;;;;6.75;6.05;;;;;;;7.06;67.67;98918.50;5022778;28;20045;-81
2021/05/06 06:22:32;;;;;;;5.95;5.35;;;;;;;7.08;67.94;98911.44;5014574;28;20046;-80
2021/05/06 06:25:01;;;;;;;8.38;6.40;;;;;;;7.10;68.14;98917.41;5014258;28;20050;-81
2021/05/06 06:27:31;;;;;;;6.60;5.53;;;;;;;7.13;68.40;98919.88;5013656;28;20140;-81
2021/05/06 06:29:58;;;;;;;7.32;6.45;;;;;;;7.17;68.39;98916.16;5025122;28;20470;-81
2021/05/06 06:32:24;;;;;;;6.32;5.72;;;;;;;7.23;68.35;98921.97;5033841;28;20549;-82
2021/05/06 06:34:51;;;;;;;6.25;5.65;;;;;;;7.26;67.90;98916.56;5034502;28;20050;-81
2021/05/06 06:37:17;;;;;;;5.70;5.10;;;;;;;7.29;67.97;98919.00;5033793;28;20471;-81
2021/05/06 06:39:46;;;;;;;5.72;5.15;;;;;;;7.33;68.19;98917.06;5023113;28;20144;-81
2021/05/06 06:42:12;;;;;;;5.32;4.82;;;;;;;7.36;68.38;98922.94;5012012;28;20042;-81
2021/05/06 06:44:39;;;;;;;6.20;5.60;;;;;;;7.39;68.40;98925.41;5013487;28;20468;-82
2021/05/06 06:47:07;;;;;;;5.57;4.88;;;;;;;7.45;68.08;98925.97;5013870;28;20414;-82
2021/05/06 06:49:37;;;;;;;5.45;4.80;;;;;;;7.48;67.95;98928.41;5020590;28;20111;-82
2021/05/06 06:52:05;;;;;;;5.07;4.57;;;;;;;7.48;67.55;98925.81;5034271;28;20052;-82
2021/05/06 06:54:32;;;;;;;5.13;4.50;;;;;;;7.51;67.86;98929.06;5032444;28;20061;-81
2021/05/06 06:57:03;;;;;;;6.30;5.50;;;;;;;7.54;68.15;98931.53;5034991;28;20060;-82
2021/05/06 06:59:29;;;;;;;4.95;4.35;;;;;;;7.59;68.63;98926.00;5023416;28;20498;-82
2021/05/06 07:01:55;;;;;;;5.03;4.53;;;;;;;7.66;68.84;98921.25;5018646;28;20057;-82
2021/05/06 07:04:22;;;;;;;5.47;4.75;;;;;;;7.74;68.61;98923.44;5015657;28;20092;-81
2021/05/06 07:06:48;;;;;;;6.20;4.47;;;;;;;7.79;68.26;98922.25;5015497;28;20054;-82
2021/05/06 07:09:14;;;;;;;4.70;4.20;;;;;;;7.87;68.61;98924.41;5024061;28;20054;-82
2021/05/06 07:11:41;;;;;;;6.68;4.85;;;;;;;7.96;68.23;98925.63;5035961;28;20084;-82
2021/05/06 07:14:07;;;;;;;4.95;4.55;;;;;;;8.05;68.86;98926.84;5037305;28;20049;-82
2021/05/06 07:16:33;;;;;;;5.05;4.55;;;;;;;8.13;68.54;98921.16;5036837;28;20045;-82
2021/05/06 07:19:00;;;;;;;6.78;5.13;;;;;;;8.21;68.54;98932.88;5029642;28;20053;-81
2021/05/06 07:21:27;;;;;;;6.65;5.03;;;;;;;8.30;68.19;98928.00;5017779;28;20046;-81
2021/05/06 07:23:54;;;;;;;7.40;4.88;;;;;;;8.39;68.18;98923.97;5017664;28;20054;-82
2021/05/06 07:26:26;;;;;;;6.15;4.43;;;;;;;8.45;67.86;98931.47;5018144;28;20058;-82
2021/05/06 07:28:53;;;;;;;7.53;5.05;;;;;;;8.54;68.07;98938.78;5022459;28;20536;-83
2021/05/06 07:31:22;;;;;;;6.38;5.00;;;;;;;8.62;68.05;98926.97;5046813;28;20099;-82
2021/05/06 07:33:50;;;;;;;7.13;4.85;;;;;;;8.67;68.08;98928.38;5036858;28;20564;-82
2021/05/06 07:36:20;;;;;;;5.10;4.60;;;;;;;8.74;67.96;98928.81;5036483;28;20111;-82
2021/05/06 07:38:50;;;;;;;6.03;5.40;;;;;;;8.82;67.50;98929.19;5035613;28;20124;-81
2021/05/06 07:41:19;;;;;;;6.88;5.28;;;;;;;8.89;67.49;98929.63;5035452;28;20073;-81
2021/05/06 07:43:48;;;;;;;5.63;5.03;;;;;;;8.96;67.28;98927.47;5035421;28;20061;-82
2021/05/06 07:46:19;;;;;;;5.75;5.15;;;;;;;9.02;66.91;98926.22;5035717;28;20136;-81
2021/05/06 07:48:51;;;;;;;6.32;5.03;;;;;;;9.05;67.44;98926.03;5035897;28;20049;-81
2021/05/06 07:51:22;;;;;;;7.13;5.43;;;;;;;9.12;67.25;98929.94;5034418;28;20055;-82
2021/05/06 07:53:53;;;;;;;5.70;5.10;;;;;;;9.19;67.36;98935.66;5034872;28;20053;-81
2021/05/06 07:56:23;;;;;;;7.13;5.60;;;;;;;9.23;66.73;98937.97;5035433;28;20045;-81
2021/05/06 07:58:50;;;;;;;5.75;4.97;;;;;;;9.26;66.84;98934.31;5034014;28;20072;-81
2021/05/06 08:01:16;;;;;;;6.10;5.50;;;;;;;9.31;66.60;98934.03;5022549;28;20534;-82
2021/05/06 08:03:42;;;;;;;7.07;5.88;;;;;;;9.33;66.20;98930.34;5015497;28;20053;-81
2021/05/06 08:06:08;;;;;;;6.40;5.80;;;;;;;9.36;66.03;98934.56;5015450;28;20046;-81
2021/05/06 08:08:35;;;;;;;7.68;6.00;;;;;;;9.37;66.08;98928.34;5015468;28;20050;-81
2021/05/06 08:11:02;;;;;;;8.00;6.03;;;;;;;9.37;65.55;98933.59;5014983;28;20064;-82
2021/05/06 08:13:29;;;;;;;6.47;5.43;;;;;;;9.37;65.30;98937.09;5015678;28;20112;-82
2021/05/06 08:15:56;;;;;;;7.95;5.70;;;;;;;9.35;64.83;98940.75;5015108;28;20496;-82
2021/05/06 08:18:24;;;;;;;7.18;5.82;;;;;;;9.33;64.87;98940.84;5015597;28;20088;-82
2021/05/06 08:20:50;;;;;;;7.78;5.47;;;;;;;9.34;65.29;98945.16;5015017;28;20050;-82
2021/05/06 08:23:20;;;;;;;7.80;5.45;;;;;;;9.35;65.67;98936.34;5016107;28;20104;-82
2021/05/06 08:25:46;;;;;;;9.27;5.50;;;;;;;9.38;65.35;98937.91;5014329;28;20499;-83
2021/05/06 08:28:12;;;;;;;9.80;5.88;;;;;;;9.45;65.79;98938.34;5015876;28;20054;-82
2021/05/06 08:30:39;;;;;;;6.85;5.68;;;;;;;9.52;66.03;98940.50;5014946;28;20507;-81
2021/05/06 08:33:05;;;;;;;6.40;5.32;;;;;;;9.59;65.79;98943.56;5015284;28;20042;-81
2021/05/06 08:35:32;;;;;;;6.35;5.43;;;;;;;9.68;65.55;98936.84;5013416;28;20502;-83
2021/05/06 08:38:01;;;;;;;5.95;5.35;;;;;;;9.76;64.61;98947.69;5015217;28;20056;-82
2021/05/06 08:40:27;;;;;;;7.80;5.63;;;;;;;9.85;64.59;98950.63;5015139;28;20498;-82
2021/05/06 08:42:55;;;;;;;6.63;5.68;;;;;;;9.89;64.10;98946.84;5015024;28;20046;-82
2021/05/06 08:45:28;;;;;;;7.18;4.90;;;;;;;9.94;64.37;98947.38;5013854;28;20056;-82
2021/05/06 08:47:55;;;;;;;;;;;;;;;10.00;62.00;98947.00;5014910;28;20054;-82
2021/05/06 08:50:22;;;;;;;8.73;5.18;;;;;;;10.10;64.01;98949.00;5022027;28;19933;-82
2021/05/06 08:52:49;;;;;;;6.63;5.13;;;;;;;10.13;63.79;98952.25;5034130;28;20049;-83
2021/05/06 08:55:16;;;;;;;7.05;5.00;;;;;;;10.17;63.81;98945.00;5034170;28;20053;-82
2021/05/06 08:57:43;;;;;;;7.40;5.40;;;;;;;10.23;64.10;98948.97;5034755;28;20053;-83
2021/05/06 09:00:10;;;;;;;7.50;5.03;;;;;;;10.28;63.70;98947.72;5032256;28;20475;-82
2021/05/06 09:02:36;;;;;;;6.78;4.85;;;;;;;10.36;63.72;98954.25;5034361;28;20059;-82
2021/05/06 09:05:07;;;;;;;6.47;4.97;;;;;;;10.43;62.06;98948.44;5032926;28;20111;-82
2021/05/06 09:07:33;;;;;;;8.27;4.88;;;;;;;10.54;64.04;98942.47;5033457;28;20060;-82
2021/05/06 09:09:59;;;;;;;6.70;5.20;;;;;;;10.64;64.01;98949.72;5032493;28;20049;-83
2021/05/06 09:12:37;;;;;;;5.43;4.45;;;;;;;10.71;61.53;98944.84;5033942;28;20048;-82
2021/05/06 09:15:16;;;;;;;5.05;4.55;;;;;;;10.80;61.19;98950.31;5032895;28;20410;-82
2021/05/06 09:17:42;;;;;;;4.90;4.40;;;;;;;10.89;62.98;98951.47;5033553;28;20057;-83
2021/05/06 09:20:20;;;;;;;6.22;5.07;;;;;;;10.91;61.06;98949.53;5027943;28;20399;-82
2021/05/06 09:22:49;;;;;;;6.10;4.50;;;;;;;10.99;62.59;98946.34;5012433;28;20052;-82
2021/05/06 09:25:36;;;;;;;7.07;4.72;;;;;;;11.02;60.45;98940.88;5018828;28;20050;-82
2021/05/06 09:28:14;;;;;;;5.18;4.30;;;;;;;11.13;61.05;98950.63;5033945;28;20469;-82
2021/05/06 09:30:49;;;;;;;7.25;4.65;;;;;;;11.21;60.28;98947.44;5048647;28;20045;-83
2021/05/06 09:33:17;;;;;;;5.53;4.60;;;;;;;11.32;61.49;98954.56;5033844;28;20076;-83
2021/05/06 09:35:48;;;;;;;7.95;4.97;;;;;;;11.34;59.56;98936.84;5033569;28;20057;-82
2021/05/06 09:38:29;;;;;;;5.80;4.50;;;;;;;11.36;58.80;98939.38;5033237;28;20679;-82
2021/05/06 09:41:00;;;;;;;5.72;4.35;;;;;;;11.43;61.15;98940.59;5033549;28;20060;-82
2021/05/06 09:43:38;;;;;;;5.13;4.63;;;;;;;11.43;59.39;98937.94;5030131;28;20487;-82
2021/05/06 09:46:35;;;;;;;6.70;5.13;;;;;;;11.52;61.87;98926.75;5018538;28;20093;-82
2021/05/06 09:49:03;;;;;;;8.35;5.30;;;;;;;11.66;61.96;98924.88;5012549;28;20057;-82
2021/05/06 09:51:50;;;;;;;4.85;4.25;;;;;;;11.74;59.42;98917.25;5013196;28;20046;-82
2021/05/06 09:54:27;;;;;;;4.95;4.28;;;;;;;11.88;60.27;98920.63;5011996;28;20385;-82
2021/05/06 09:56:59;;;;;;;5.82;4.63;;;;;;;11.94;59.70;98920.13;5012599;28;20054;-82
2021/05/06 09:59:39;;;;;;;4.55;4.15;;;;;;;11.96;57.71;98918.25;5012607;28;20466;-82
2021/05/06 10:02:17;;;;;;;6.32;4.35;;;;;;;11.97;57.95;98919.91;5030936;28;20045;-82
2021/05/06 10:04:47;;;;;;;5.50;4.85;;;;;;;11.95;59.08;98913.91;5031954;28;20482;-82
2021/05/06 10:07:14;;;;;;;7.85;4.88;;;;;;;11.93;59.51;98921.09;5032297;28;20060;-82
2021/05/06 10:09:49;;;;;;;6.07;4.65;;;;;;;11.90;57.41;98918.69;5031493;28;20087;-82
2021/05/06 10:12:15;;;;;;;6.78;5.10;;;;;;;11.92;60.82;98914.97;5031075;28;20054;-82
2021/05/06 10:14:41;;;;;;;6.45;4.68;;;;;;;12.02;61.46;98912.47;5030637;28;20200;-83
2021/05/06 10:17:08;;;;;;;7.38;5.50;;;;;;;12.15;61.81;98908.94;5032177;28;20427;-82
2021/05/06 10:19:38;;;;;;;7.07;5.28;;;;;;;12.32;61.25;98907.59;5032049;28;20049;-82
2021/05/06 10:22:07;;;;;;;5.32;4.57;;;;;;;12.54;60.71;98914.69;5017144;28;20060;-82
2021/05/06 10:24:34;;;;;;;5.95;5.07;;;;;;;12.74;61.74;98910.47;5012417;28;20057;-83
2021/05/06 10:27:01;;;;;;;5.45;4.32;;;;;;;12.97;60.49;98907.78;5012283;28;20054;-83
2021/05/06 10:29:28;;;;;;;6.65;4.65;;;;;;;13.19;60.99;98911.31;5012197;28;20092;-82
2021/05/06 10:31:57;;;;;;;8.15;4.78;;;;;;;13.39;60.17;98911.50;5012708;28;20069;-83
2021/05/06 10:34:25;;;;;;;5.72;4.50;;;;;;;13.59;58.47;98915.16;5011857;28;20508;-83
2021/05/06 10:36:51;;;;;;;4.72;4.20;;;;;;;13.74;57.80;98914.81;5012357;28;20061;-82
2021/05/06 10:39:17;;;;;;;5.82;4.35;;;;;;;13.80;56.67;98914.31;5012599;28;20050;-82
2021/05/06 10:41:43;;;;;;;5.78;5.10;;;;;;;13.86;57.08;98918.25;5012081;28;20096;-82
2021/05/06 10:44:13;;;;;;;5.88;5.18;;;;;;;13.89;55.57;98915.34;5012227;28;20133;-82
2021/05/06 10:47:01;;;;;;;5.28;4.78;;;;;;;13.86;49.96;98905.84;5010958;28;20054;-82
2021/05/06 10:49:50;;;;;;;5.82;4.65;;;;;;;13.88;53.26;98909.22;5011561;28;20049;-83
2021/05/06 10:52:17;;;;;;;4.97;4.45;;;;;;;13.98;56.98;98906.63;5011947;28;20056;-82
2021/05/06 10:54:49;;;;;;;7.53;4.82;;;;;;;13.98;53.21;98901.31;5012135;28;20427;-83
2021/05/06 10:57:15;;;;;;;7.15;4.93;;;;;;;14.01;55.05;98905.50;5012339;28;20057;-83
2021/05/06 10:59:43;;;;;;;5.57;4.72;;;;;;;13.98;54.74;98911.09;5027985;28;20057;-83
2021/05/06 11:02:11;;;;;;;7.55;5.63;;;;;;;13.94;54.91;98903.41;5031969;28;20506;-83
2021/05/06 11:04:40;;;;;;;5.88;5.25;;;;;;;13.94;55.66;98905.19;5032143;28;20053;-83
2021/05/06 11:07:18;;;;;;;7.50;5.60;;;;;;;13.98;54.44;98903.16;5031708;28;20049;-83
2021/05/06 11:09:47;;;;;;;5.78;4.85;;;;;;;14.10;56.76;98898.59;5017615;28;20100;-83
2021/05/06 11:12:18;;;;;;;7.30;5.22;;;;;;;14.22;54.42;98894.06;5015371;28;20042;-83
2021/05/06 11:15:00;;;;;;;7.50;5.05;;;;;;;14.35;53.74;98891.19;5031770;28;20054;-83
2021/05/06 11:17:40;;;;;;;7.22;5.00;;;;;;;14.51;53.93;98890.69;5027016;28;20053;-83
2021/05/06 11:20:09;;;;;;;6.38;5.45;;;;;;;14.72;55.20;98885.31;5013250;28;20096;-82
2021/05/06 11:23:03;;;;;;;5.88;4.82;;;;;;;14.97;53.69;98880.50;5012026;28;20051;-82
2021/05/06 11:27:58;;;;;;;5.97;4.88;;;;;;;15.83;58.49;98873.63;5011722;28;20050;-83
2021/05/06 11:30:30;;;;;;;8.35;5.32;;;;;;;16.36;56.23;98867.88;5011585;28;20151;-83
2021/05/06 11:32:56;;;;;;;4.95;4.53;;;;;;;16.94;58.24;98868.53;5012661;28;20046;-83
2021/05/06 11:35:37;;;;;;;5.43;4.45;;;;;;;17.55;58.04;98863.44;5011634;28;20201;-82
2021/05/06 11:38:03;;;;;;;4.60;4.03;;;;;;;18.24;57.49;98859.19;5011937;28;20049;-84
2021/05/06 11:40:31;;;;;;;6.47;4.50;;;;;;;18.84;56.46;98845.91;5011430;28;20054;-83
2021/05/06 11:42:57;;;;;;;4.40;3.92;;;;;;;19.38;54.50;98842.81;5011981;28;20042;-83
2021/05/06 11:45:24;;;;;;;5.55;4.10;;;;;;;19.77;50.56;98832.38;5011204;28;20050;-83
2021/05/06 11:47:53;;;;;;;5.18;4.00;;;;;;;19.93;48.45;98832.34;5023334;28;20129;-84
2021/05/06 11:50:33;;;;;;;4.80;3.95;;;;;;;19.90;39.19;98838.06;5032788;28;20092;-84
2021/05/06 11:53:01;;;;;;;4.53;3.75;;;;;;;19.84;45.77;98827.22;5035120;28;20419;-84
2021/05/06 11:55:38;;;;;;;4.63;3.55;;;;;;;19.70;42.52;98829.56;5035022;28;20050;-83
2021/05/06 11:58:05;;;;;;;3.63;3.33;;;;;;;19.66;46.08;98829.06;5036087;28;20065;-83
2021/05/06 12:00:33;;;;;;;4.20;3.72;;;;;;;19.64;45.90;98827.59;5034817;28;20396;-83
2021/05/06 12:03:11;;;;;;;3.53;3.15;;;;;;;19.67;43.15;98816.56;5034734;28;20129;-83
2021/05/06 12:05:56;;;;;;;5.05;3.25;;;;;;;19.84;40.20;98821.88;5034293;28;20053;-84
2021/05/06 12:08:27;;;;;;;4.32;3.28;;;;;;;20.03;42.99;98813.50;5031913;28;20041;-84
2021/05/06 12:10:55;;;;;;;3.42;3.05;;;;;;;20.15;42.96;98811.25;5034797;28;20049;-83
2021/05/06 12:13:29;;;;;;;4.93;3.03;;;;;;;20.23;42.69;98809.56;5034272;28;20682;-83
2021/05/06 12:16:15;;;;;;;4.55;3.05;;;;;;;20.37;41.74;98800.81;5034014;28;20050;-83
2021/05/06 12:18:42;;;;;;;3.85;2.90;;;;;;;20.66;46.10;98785.09;5034584;28;20064;-84
2021/05/06 12:21:08;;;;;;;3.95;2.92;;;;;;;20.95;46.54;98791.63;5025201;28;20053;-83
2021/05/06 12:23:35;;;;;;;4.32;3.17;;;;;;;21.21;44.89;98790.41;5014109;28;20065;-83
2021/05/06 12:26:02;;;;;;;5.68;3.30;;;;;;;21.41;42.91;98780.00;5026292;28;20057;-83
2021/05/06 12:28:38;;;;;;;3.67;3.25;;;;;;;21.36;33.38;98785.09;5016785;28;20053;-83
2021/05/06 12:31:04;;;;;;;4.70;3.15;;;;;;;21.30;41.21;98780.47;5014316;28;20061;-84
2021/05/06 12:33:32;;;;;;;3.42;3.13;;;;;;;21.14;41.16;98776.09;5014354;28;20436;-83
2021/05/06 12:35:59;;;;;;;4.20;2.97;;;;;;;21.09;41.56;98772.09;5026554;28;20157;-83
2021/05/06 12:38:29;;;;;;;3.78;3.22;;;;;;;21.15;42.00;98770.56;5034128;28;20051;-84
2021/05/06 12:40:55;;;;;;;3.67;2.90;;;;;;;21.28;43.61;98761.91;5033772;28;20053;-83
2021/05/06 12:43:31;;;;;;;3.20;2.90;;;;;;;21.50;40.90;98761.19;5032971;28;20053;-84
2021/05/06 12:46:09;;;;;;;2.83;2.58;;;;;;;21.79;40.51;98764.94;5021277;28;20058;-83
2021/05/06 12:48:41;;;;;;;4.65;2.60;;;;;;;22.07;39.59;98772.28;5013508;28;20045;-84
2021/05/06 12:51:10;;;;;;;;;;;;;;;22.29;39.49;98762.47;5014115;28;20053;-83
2021/05/06 12:53:37;;;;;;;4.65;2.90;;;;;;;22.59;41.60;98769.63;5013456;28;19928;-83
2021/05/06 12:56:04;;;;;;;4.78;2.75;;;;;;;22.67;39.84;98761.44;5024742;28;20045;-83
2021/05/06 12:58:33;;;;;;;3.08;2.78;;;;;;;22.56;38.59;98753.91;5033655;28;20052;-83
2021/05/06 13:00:59;;;;;;;2.38;2.17;;;;;;;22.39;39.79;98756.81;5032927;28;20057;-83
2021/05/06 13:03:34;;;;;;;3.78;2.88;;;;;;;22.23;37.88;98753.31;5016098;28;20053;-84
2021/05/06 13:06:07;;;;;;;2.92;2.70;;;;;;;22.29;38.99;98742.84;5021201;28;20414;-83
2021/05/06 13:08:38;;;;;;;3.35;2.92;;;;;;;22.45;40.69;98749.84;5013730;28;20188;-84
2021/05/06 13:11:08;;;;;;;3.80;2.10;;;;;;;22.67;39.40;98753.41;5013519;28;20152;-83
2021/05/06 13:13:43;;;;;;;3.35;2.95;;;;;;;22.91;38.25;98745.97;5013687;28;20053;-82
2021/05/06 13:16:13;;;;;;;3.28;2.85;;;;;;;23.09;38.68;98742.81;5018197;28;20050;-83
2021/05/06 13:18:40;;;;;;;3.55;3.22;;;;;;;23.14;38.62;98744.94;5018429;28;20050;-84
2021/05/06 13:21:20;;;;;;;3.65;3.10;;;;;;;23.08;37.87;98743.84;5013261;28;20519;-84
2021/05/06 13:23:46;;;;;;;2.92;2.70;;;;;;;22.88;37.65;98747.19;5015163;28;20483;-83
2021/05/06 13:26:12;;;;;;;5.25;3.50;;;;;;;22.54;35.76;98742.50;5020001;28;20077;-83
2021/05/06 13:28:39;;;;;;;3.40;3.10;;;;;;;22.11;36.58;98736.91;5028873;28;20045;-83
2021/05/06 13:31:25;;;;;;;4.03;3.05;;;;;;;21.65;36.59;98737.09;5038090;28;20056;-84
2021/05/06 13:34:13;;;;;;;3.67;3.38;;;;;;;21.43;35.98;98737.84;5012388;28;20467;-84
2021/05/06 13:40:40;;;;;;;3.80;3.40;;;;;;;21.63;39.20;98729.25;5014051;28;20123;-85
2021/05/06 13:43:43;;;;;;;;;;;;;;;;;;;;;
2021/05/06 13:46:30;;;;;;;3.45;3.00;;;;;;;21.67;38.21;98727.88;4951810;28;20449;-84
2021/05/06 13:48:58;;;;;;;3.92;3.63;;;;;;;21.44;36.34;98723.44;4950256;28;20051;-83
2021/05/06 13:51:26;;;;;;;4.40;4.00;;;;;;;21.19;36.77;98723.69;4950344;29;20063;-83
2021/05/06 13:53:53;;;;;;;4.10;3.70;;;;;;;20.99;38.09;98718.03;4936180;29;20047;-83
2021/05/06 13:56:20;;;;;;;4.10;3.70;;;;;;;20.91;39.09;98715.41;4935478;29;20047;-83
2021/05/06 13:58:50;;;;;;;4.20;3.70;;;;;;;20.87;36.25;98708.75;4952070;29;20059;-83
2021/05/06 14:01:17;;;;;;;4.22;3.60;;;;;;;20.82;37.63;98717.31;4951395;29;20421;-84
2021/05/06 14:03:43;;;;;;;4.40;3.92;;;;;;;20.63;37.72;98711.44;4964410;28;20546;-83
2021/05/06 14:06:10;;;;;;;4.10;3.80;;;;;;;20.43;38.00;98708.41;4970641;28;20051;-83
2021/05/06 14:08:37;;;;;;;4.47;3.67;;;;;;;20.25;39.36;98706.00;4970172;28;20050;-83
2021/05/06 14:11:04;;;;;;;4.40;3.90;;;;;;;20.12;39.34;98693.25;4970449;28;20519;-83
2021/05/06 14:13:32;;;;;;;4.43;4.03;;;;;;;20.09;38.54;98688.25;4972449;28;20107;-82
2021/05/06 14:16:00;;;;;;;3.85;3.53;;;;;;;20.12;39.42;98694.09;4971377;28;20054;-83
2021/05/06 14:18:27;;;;;;;4.90;3.65;;;;;;;20.20;39.40;98682.50;4971702;28;20062;-84
2021/05/06 14:20:59;;;;;;;5.97;3.85;;;;;;;20.23;39.29;98684.84;5010654;28;20490;-83
2021/05/06 14:23:26;;;;;;;3.47;3.17;;;;;;;20.18;38.96;98681.84;5023218;28;20510;-83
2021/05/06 14:25:54;;;;;;;4.72;4.13;;;;;;;20.03;38.13;98674.59;5012873;28;20518;-83
2021/05/06 14:28:20;;;;;;;5.20;4.20;;;;;;;19.85;38.08;98666.81;5014429;28;20060;-83
2021/05/06 14:30:46;;;;;;;5.03;4.40;;;;;;;19.62;38.19;98675.59;5013017;28;20060;-83
2021/05/06 14:33:13;;;;;;;5.00;4.20;;;;;;;19.39;38.68;98672.84;5013233;28;20050;-83
2021/05/06 14:35:39;;;;;;;4.55;4.00;;;;;;;19.20;38.79;98668.72;5012474;28;20504;-83
2021/05/06 14:38:08;;;;;;;5.28;4.05;;;;;;;19.02;39.52;98661.72;5014156;28;20453;-83
2021/05/06 14:40:36;;;;;;;4.97;3.83;;;;;;;18.85;39.37;98664.44;5011885;28;20058;-83
2021/05/06 14:43:02;;;;;;;7.35;3.65;;;;;;;18.70;39.69;98660.78;5013196;28;20484;-82
2021/05/06 14:45:29;;;;;;;5.70;4.63;;;;;;;18.58;39.56;98661.09;5012570;28;20050;-83
2021/05/06 14:47:55;;;;;;;4.90;4.43;;;;;;;18.48;40.15;98657.78;5013258;28;20514;-83
2021/05/06 14:50:22;;;;;;;5.65;4.78;;;;;;;18.37;39.94;98661.59;5012661;28;20085;-83
2021/05/06 14:52:53;;;;;;;4.93;4.40;;;;;;;18.25;40.24;98658.44;5012918;28;20046;-83
2021/05/06 14:55:21;;;;;;;4.85;4.35;;;;;;;18.14;40.16;98666.72;5011043;28;20046;-83
2021/05/06 14:57:48;;;;;;;4.63;3.90;;;;;;;18.03;40.47;98663.34;5012887;28;20053;-83
2021/05/06 15:00:15;;;;;;;5.28;4.50;;;;;;;17.94;40.80;98661.69;5012687;28;20411;-83
2021/05/06 15:02:44;;;;;;;5.13;4.63;;;;;;;17.82;40.85;98661.13;5012761;28;20061;-83
2021/05/06 15:05:11;;;;;;;5.70;4.43;;;;;;;17.71;40.86;98657.78;5012553;28;20054;-83
2021/05/06 15:07:37;;;;;;;5.10;4.53;;;;;;;17.58;40.29;98658.22;5013007;28;20392;-83